Terminal Aerodrome Forecast
Issued by NWS

Home | Current Version | Previous Version | Text Only | Print | Product List | Glossary On
Versions: 1 2 3 4 5 6 7 8 9 10 11 12 13 14
000
FTUS46 KSGX 031506 AAA
TAFSNA
TAF AMD
KSNA 031506Z 0315/0412 05006KT P6SM SKC
     FM032000 26008KT P6SM SKC
     FM040100 VRB04KT P6SM SKC=

USA.gov is the U.S. government's official web portal to all federal, state and local government web resources and services.